sensor_id;sensor_type;location;lat;lon;timestamp;temperature;humidity
9403;DHT22;4741;49.834;10.740;2023-04-10T00:00:22;2.80;99.90
9403;DHT22;4741;49.834;10.740;2023-04-10T00:02:49;3.00;99.90
9403;DHT22;4741;49.834;10.740;2023-04-10T00:05:16;2.80;99.90
9403;DHT22;4741;49.834;10.740;2023-04-10T00:07:43;2.70;99.90
9403;DHT22;4741;49.834;10.740;2023-04-10T00:10:09;2.70;99.90
9403;DHT22;4741;49.834;10.740;2023-04-10T00:12:36;2.70;99.90
9403;DHT22;4741;49.834;10.740;2023-04-10T00:15:03;2.80;99.90
9403;DHT22;4741;49.834;10.740;2023-04-10T00:17:30;2.80;99.90
9403;DHT22;4741;49.834;10.740;2023-04-10T00:19:56;2.60;99.90
9403;DHT22;4741;49.834;10.740;2023-04-10T00:22:24;2.50;99.90
9403;DHT22;4741;49.834;10.740;2023-04-10T00:24:52;2.60;99.90
9403;DHT22;4741;49.834;10.740;2023-04-10T00:27:18;2.50;99.90
9403;DHT22;4741;49.834;10.740;2023-04-10T00:29:45;2.40;99.90
9403;DHT22;4741;49.834;10.740;2023-04-10T00:32:12;2.20;99.90
9403;DHT22;4741;49.834;10.740;2023-04-10T00:34:39;2.20;99.90
9403;DHT22;4741;49.834;10.740;2023-04-10T00:37:05;2.20;99.90
9403;DHT22;4741;49.834;10.740;2023-04-10T00:39:32;2.10;99.90
9403;DHT22;4741;49.834;10.740;2023-04-10T00:41:59;1.80;99.90
9403;DHT22;4741;49.834;10.740;2023-04-10T00:44:26;1.80;99.90
9403;DHT22;4741;49.834;10.740;2023-04-10T00:46:53;2.00;99.90
9403;DHT22;4741;49.834;10.740;2023-04-10T00:49:20;2.10;99.90
9403;DHT22;4741;49.834;10.740;2023-04-10T00:51:47;2.00;99.90
9403;DHT22;4741;49.834;10.740;2023-04-10T00:54:14;2.10;99.90
9403;DHT22;4741;49.834;10.740;2023-04-10T00:56:41;2.20;99.90
9403;DHT22;4741;49.834;10.740;2023-04-10T00:59:08;2.60;99.90
9403;DHT22;4741;49.834;10.740;2023-04-10T01:01:35;2.10;99.90
9403;DHT22;4741;49.834;10.740;2023-04-10T01:04:01;2.20;99.90
9403;DHT22;4741;49.834;10.740;2023-04-10T01:11:38;2.00;99.90
9403;DHT22;4741;49.834;10.740;2023-04-10T01:16:40;1.70;99.90
9403;DHT22;4741;49.834;10.740;2023-04-10T01:19:14;1.80;99.90
9403;DHT22;4741;49.834;10.740;2023-04-10T01:21:44;1.60;99.90
9403;DHT22;4741;49.834;10.740;2023-04-10T01:26:54;1.90;99.90
9403;DHT22;4741;49.834;10.740;2023-04-10T01:29:22;1.90;99.90
9403;DHT22;4741;49.834;10.740;2023-04-10T01:34:19;1.50;99.90
9403;DHT22;4741;49.834;10.740;2023-04-10T01:36:52;1.50;99.90
9403;DHT22;4741;49.834;10.740;2023-04-10T01:39:20;1.40;99.90
9403;DHT22;4741;49.834;10.740;2023-04-10T01:41:49;1.50;99.90
9403;DHT22;4741;49.834;10.740;2023-04-10T01:44:18;1.50;99.90
9403;DHT22;4741;49.834;10.740;2023-04-10T01:46:47;1.50;99.90
9403;DHT22;4741;49.834;10.740;2023-04-10T01:49:14;1.40;99.90
9403;DHT22;4741;49.834;10.740;2023-04-10T01:51:41;1.60;99.90
9403;DHT22;4741;49.834;10.740;2023-04-10T01:54:09;1.60;99.90
9403;DHT22;4741;49.834;10.740;2023-04-10T01:56:35;1.70;99.90
9403;DHT22;4741;49.834;10.740;2023-04-10T01:59:02;1.70;99.90
9403;DHT22;4741;49.834;10.740;2023-04-10T02:01:30;1.60;99.90
9403;DHT22;4741;49.834;10.740;2023-04-10T02:03:58;1.60;99.90
9403;DHT22;4741;49.834;10.740;2023-04-10T02:11:48;1.60;99.90
9403;DHT22;4741;49.834;10.740;2023-04-10T02:14:17;1.60;99.90
9403;DHT22;4741;49.834;10.740;2023-04-10T02:16:45;1.60;99.90
9403;DHT22;4741;49.834;10.740;2023-04-10T02:19:12;1.50;99.90
9403;DHT22;4741;49.834;10.740;2023-04-10T02:21:39;1.50;99.90
9403;DHT22;4741;49.834;10.740;2023-04-10T02:24:07;1.40;99.90
9403;DHT22;4741;49.834;10.740;2023-04-10T02:26:44;1.40;99.90
9403;DHT22;4741;49.834;10.740;2023-04-10T02:29:10;1.10;99.90
9403;DHT22;4741;49.834;10.740;2023-04-10T02:31:37;1.00;99.90
9403;DHT22;4741;49.834;10.740;2023-04-10T02:34:04;0.90;99.90
9403;DHT22;4741;49.834;10.740;2023-04-10T02:36:31;1.10;99.90
9403;DHT22;4741;49.834;10.740;2023-04-10T02:38:58;1.10;99.90
9403;DHT22;4741;49.834;10.740;2023-04-10T02:41:24;1.10;99.90
9403;DHT22;4741;49.834;10.740;2023-04-10T02:43:51;1.00;99.90
9403;DHT22;4741;49.834;10.740;2023-04-10T02:46:18;1.00;99.90
9403;DHT22;4741;49.834;10.740;2023-04-10T02:48:45;1.10;99.90
9403;DHT22;4741;49.834;10.740;2023-04-10T02:51:11;1.10;99.90
9403;DHT22;4741;49.834;10.740;2023-04-10T02:53:38;1.00;99.90
9403;DHT22;4741;49.834;10.740;2023-04-10T02:56:05;0.80;99.90
9403;DHT22;4741;49.834;10.740;2023-04-10T02:58:32;0.90;99.90
9403;DHT22;4741;49.834;10.740;2023-04-10T03:00:59;0.70;99.90
9403;DHT22;4741;49.834;10.740;2023-04-10T03:03:26;0.60;99.90
9403;DHT22;4741;49.834;10.740;2023-04-10T03:05:53;0.70;99.90
9403;DHT22;4741;49.834;10.740;2023-04-10T03:08:19;0.60;99.90
9403;DHT22;4741;49.834;10.740;2023-04-10T03:10:46;0.60;99.90
9403;DHT22;4741;49.834;10.740;2023-04-10T03:13:16;0.60;99.90
9403;DHT22;4741;49.834;10.740;2023-04-10T03:15:43;0.70;99.90
9403;DHT22;4741;49.834;10.740;2023-04-10T03:18:09;0.70;99.90
9403;DHT22;4741;49.834;10.740;2023-04-10T03:20:36;0.40;99.90
9403;DHT22;4741;49.834;10.740;2023-04-10T03:23:04;0.70;99.90
9403;DHT22;4741;49.834;10.740;2023-04-10T03:25:34;0.40;99.90
9403;DHT22;4741;49.834;10.740;2023-04-10T03:28:01;0.70;99.90
9403;DHT22;4741;49.834;10.740;2023-04-10T03:30:27;0.70;99.90
9403;DHT22;4741;49.834;10.740;2023-04-10T03:32:54;0.50;99.90
9403;DHT22;4741;49.834;10.740;2023-04-10T03:35:21;0.40;99.90
9403;DHT22;4741;49.834;10.740;2023-04-10T03:37:47;0.70;99.90
9403;DHT22;4741;49.834;10.740;2023-04-10T03:40:14;0.50;99.90
9403;DHT22;4741;49.834;10.740;2023-04-10T03:42:41;0.40;99.90
9403;DHT22;4741;49.834;10.740;2023-04-10T03:45:08;0.60;99.90
9403;DHT22;4741;49.834;10.740;2023-04-10T03:47:35;0.70;99.90
9403;DHT22;4741;49.834;10.740;2023-04-10T03:50:01;0.50;99.90
9403;DHT22;4741;49.834;10.740;2023-04-10T03:52:28;0.70;99.90
9403;DHT22;4741;49.834;10.740;2023-04-10T03:54:55;0.40;99.90
9403;DHT22;4741;49.834;10.740;2023-04-10T03:57:21;0.40;99.90
9403;DHT22;4741;49.834;10.740;2023-04-10T03:59:48;0.30;99.90
9403;DHT22;4741;49.834;10.740;2023-04-10T04:02:15;0.20;99.90
9403;DHT22;4741;49.834;10.740;2023-04-10T04:04:42;0.30;99.90
9403;DHT22;4741;49.834;10.740;2023-04-10T04:07:08;0.20;99.90
9403;DHT22;4741;49.834;10.740;2023-04-10T04:09:36;0.30;99.90
9403;DHT22;4741;49.834;10.740;2023-04-10T04:12:03;0.20;99.90
9403;DHT22;4741;49.834;10.740;2023-04-10T04:14:29;-0.40;99.90
9403;DHT22;4741;49.834;10.740;2023-04-10T04:16:56;0.10;99.90
9403;DHT22;4741;49.834;10.740;2023-04-10T04:19:23;0.00;99.90
9403;DHT22;4741;49.834;10.740;2023-04-10T04:21:49;0.10;99.90
9403;DHT22;4741;49.834;10.740;2023-04-10T04:24:16;2.30;99.90
9403;DHT22;4741;49.834;10.740;2023-04-10T04:26:43;0.00;99.90
9403;DHT22;4741;49.834;10.740;2023-04-10T04:29:09;0.20;99.90
9403;DHT22;4741;49.834;10.740;2023-04-10T04:31:36;0.30;99.90
9403;DHT22;4741;49.834;10.740;2023-04-10T04:34:03;0.40;99.90
9403;DHT22;4741;49.834;10.740;2023-04-10T04:36:29;0.00;99.90
9403;DHT22;4741;49.834;10.740;2023-04-10T04:38:56;0.10;99.90
9403;DHT22;4741;49.834;10.740;2023-04-10T04:41:23;0.00;99.90
9403;DHT22;4741;49.834;10.740;2023-04-10T04:43:49;0.20;99.90
9403;DHT22;4741;49.834;10.740;2023-04-10T04:46:19;0.00;99.90
9403;DHT22;4741;49.834;10.740;2023-04-10T04:48:46;0.20;99.90
9403;DHT22;4741;49.834;10.740;2023-04-10T04:51:12;0.30;99.90
9403;DHT22;4741;49.834;10.740;2023-04-10T04:53:39;0.20;99.90
9403;DHT22;4741;49.834;10.740;2023-04-10T04:56:06;0.20;99.90
9403;DHT22;4741;49.834;10.740;2023-04-10T04:58:32;0.30;99.90
9403;DHT22;4741;49.834;10.740;2023-04-10T05:01:00;-0.20;99.90
9403;DHT22;4741;49.834;10.740;2023-04-10T05:03:27;-0.10;99.90
9403;DHT22;4741;49.834;10.740;2023-04-10T05:05:54;-0.20;99.90
9403;DHT22;4741;49.834;10.740;2023-04-10T05:08:21;-0.70;99.90
9403;DHT22;4741;49.834;10.740;2023-04-10T05:10:47;0.60;99.90
9403;DHT22;4741;49.834;10.740;2023-04-10T05:13:14;0.00;99.90
9403;DHT22;4741;49.834;10.740;2023-04-10T05:15:43;0.10;99.90
9403;DHT22;4741;49.834;10.740;2023-04-10T05:18:10;0.30;99.90
9403;DHT22;4741;49.834;10.740;2023-04-10T05:20:37;0.20;99.90
9403;DHT22;4741;49.834;10.740;2023-04-10T05:23:03;0.00;99.90
9403;DHT22;4741;49.834;10.740;2023-04-10T05:25:30;0.40;99.90
9403;DHT22;4741;49.834;10.740;2023-04-10T05:27:57;0.40;99.90
9403;DHT22;4741;49.834;10.740;2023-04-10T05:30:23;0.50;99.90
9403;DHT22;4741;49.834;10.740;2023-04-10T05:32:50;0.80;99.90
9403;DHT22;4741;49.834;10.740;2023-04-10T05:35:17;0.50;99.90
9403;DHT22;4741;49.834;10.740;2023-04-10T05:40:11;0.80;99.90
9403;DHT22;4741;49.834;10.740;2023-04-10T05:42:37;1.90;99.90
9403;DHT22;4741;49.834;10.740;2023-04-10T05:45:04;2.20;99.90
9403;DHT22;4741;49.834;10.740;2023-04-10T05:47:31;2.30;99.90
9403;DHT22;4741;49.834;10.740;2023-04-10T05:49:58;2.40;99.90
9403;DHT22;4741;49.834;10.740;2023-04-10T05:52:24;2.30;99.90
9403;DHT22;4741;49.834;10.740;2023-04-10T05:54:51;1.90;99.90
9403;DHT22;4741;49.834;10.740;2023-04-10T05:57:18;0.90;99.90
9403;DHT22;4741;49.834;10.740;2023-04-10T05:59:44;1.30;99.90
9403;DHT22;4741;49.834;10.740;2023-04-10T06:02:11;1.80;99.90
9403;DHT22;4741;49.834;10.740;2023-04-10T06:04:38;1.70;99.90
9403;DHT22;4741;49.834;10.740;2023-04-10T06:07:05;2.30;99.90
9403;DHT22;4741;49.834;10.740;2023-04-10T06:09:32;2.70;99.90
9403;DHT22;4741;49.834;10.740;2023-04-10T06:11:58;2.60;99.90
9403;DHT22;4741;49.834;10.740;2023-04-10T06:14:25;2.80;99.90
9403;DHT22;4741;49.834;10.740;2023-04-10T06:16:52;3.00;99.90
9403;DHT22;4741;49.834;10.740;2023-04-10T06:19:18;3.30;99.90
9403;DHT22;4741;49.834;10.740;2023-04-10T06:21:45;3.30;99.90
9403;DHT22;4741;49.834;10.740;2023-04-10T06:24:12;3.10;99.90
9403;DHT22;4741;49.834;10.740;2023-04-10T06:26:39;3.50;99.90
9403;DHT22;4741;49.834;10.740;2023-04-10T06:29:06;3.00;99.90
9403;DHT22;4741;49.834;10.740;2023-04-10T06:31:33;3.90;99.90
9403;DHT22;4741;49.834;10.740;2023-04-10T06:33:59;4.30;99.90
9403;DHT22;4741;49.834;10.740;2023-04-10T06:36:26;4.60;99.90
9403;DHT22;4741;49.834;10.740;2023-04-10T06:38:53;5.00;99.90
9403;DHT22;4741;49.834;10.740;2023-04-10T06:41:20;4.80;99.90
9403;DHT22;4741;49.834;10.740;2023-04-10T06:43:46;5.20;99.90
9403;DHT22;4741;49.834;10.740;2023-04-10T06:46:13;5.30;99.90
9403;DHT22;4741;49.834;10.740;2023-04-10T06:48:41;5.00;99.90
9403;DHT22;4741;49.834;10.740;2023-04-10T06:51:08;5.70;99.90
9403;DHT22;4741;49.834;10.740;2023-04-10T06:53:34;7.60;99.90
9403;DHT22;4741;49.834;10.740;2023-04-10T06:56:01;6.20;99.90
9403;DHT22;4741;49.834;10.740;2023-04-10T06:58:29;5.70;99.90
9403;DHT22;4741;49.834;10.740;2023-04-10T07:00:56;6.30;99.90
9403;DHT22;4741;49.834;10.740;2023-04-10T07:03:24;6.40;99.90
9403;DHT22;4741;49.834;10.740;2023-04-10T07:05:51;6.50;99.90
9403;DHT22;4741;49.834;10.740;2023-04-10T07:08:27;6.70;99.90
9403;DHT22;4741;49.834;10.740;2023-04-10T07:10:55;6.90;99.90
9403;DHT22;4741;49.834;10.740;2023-04-10T07:13:24;7.10;99.90
9403;DHT22;4741;49.834;10.740;2023-04-10T07:15:50;6.90;99.90
9403;DHT22;4741;49.834;10.740;2023-04-10T07:18:17;6.60;99.90
9403;DHT22;4741;49.834;10.740;2023-04-10T07:20:44;8.30;99.90
9403;DHT22;4741;49.834;10.740;2023-04-10T07:23:10;7.30;99.90
9403;DHT22;4741;49.834;10.740;2023-04-10T07:25:37;7.90;99.90
9403;DHT22;4741;49.834;10.740;2023-04-10T07:28:04;8.10;99.90
9403;DHT22;4741;49.834;10.740;2023-04-10T07:30:30;8.30;99.90
9403;DHT22;4741;49.834;10.740;2023-04-10T07:32:57;9.70;99.90
9403;DHT22;4741;49.834;10.740;2023-04-10T07:35:24;8.60;99.90
9403;DHT22;4741;49.834;10.740;2023-04-10T07:37:51;7.80;99.90
9403;DHT22;4741;49.834;10.740;2023-04-10T07:40:18;9.60;99.90
9403;DHT22;4741;49.834;10.740;2023-04-10T07:42:45;10.60;99.90
9403;DHT22;4741;49.834;10.740;2023-04-10T07:45:12;8.80;99.90
9403;DHT22;4741;49.834;10.740;2023-04-10T07:47:38;9.60;99.90
9403;DHT22;4741;49.834;10.740;2023-04-10T07:50:05;10.10;99.90
9403;DHT22;4741;49.834;10.740;2023-04-10T07:52:32;10.10;99.90
9403;DHT22;4741;49.834;10.740;2023-04-10T07:55:02;9.80;99.90
9403;DHT22;4741;49.834;10.740;2023-04-10T07:57:29;10.10;99.90
9403;DHT22;4741;49.834;10.740;2023-04-10T07:59:57;11.30;99.90
9403;DHT22;4741;49.834;10.740;2023-04-10T08:02:24;9.90;99.90
9403;DHT22;4741;49.834;10.740;2023-04-10T08:04:51;11.80;99.90
9403;DHT22;4741;49.834;10.740;2023-04-10T08:07:19;10.10;99.90
9403;DHT22;4741;49.834;10.740;2023-04-10T08:09:46;9.70;99.90
9403;DHT22;4741;49.834;10.740;2023-04-10T08:12:13;9.90;99.90
9403;DHT22;4741;49.834;10.740;2023-04-10T08:14:42;10.30;99.90
9403;DHT22;4741;49.834;10.740;2023-04-10T08:17:10;10.50;99.90
9403;DHT22;4741;49.834;10.740;2023-04-10T08:19:40;10.10;99.90
9403;DHT22;4741;49.834;10.740;2023-04-10T08:22:07;10.20;99.90
9403;DHT22;4741;49.834;10.740;2023-04-10T08:24:34;10.50;99.90
9403;DHT22;4741;49.834;10.740;2023-04-10T08:27:01;10.60;99.90
9403;DHT22;4741;49.834;10.740;2023-04-10T08:29:38;11.30;99.90
9403;DHT22;4741;49.834;10.740;2023-04-10T08:32:10;11.80;99.90
9403;DHT22;4741;49.834;10.740;2023-04-10T08:34:36;11.10;99.90
9403;DHT22;4741;49.834;10.740;2023-04-10T08:37:07;12.20;99.90
9403;DHT22;4741;49.834;10.740;2023-04-10T08:39:37;11.80;99.90
9403;DHT22;4741;49.834;10.740;2023-04-10T08:42:04;11.40;99.90
9403;DHT22;4741;49.834;10.740;2023-04-10T08:44:31;12.60;99.90
9403;DHT22;4741;49.834;10.740;2023-04-10T08:46:58;11.20;99.90
9403;DHT22;4741;49.834;10.740;2023-04-10T08:52:13;12.20;99.90
9403;DHT22;4741;49.834;10.740;2023-04-10T08:54:40;11.50;99.90
9403;DHT22;4741;49.834;10.740;2023-04-10T08:57:09;11.20;99.90
9403;DHT22;4741;49.834;10.740;2023-04-10T08:59:43;13.00;99.90
9403;DHT22;4741;49.834;10.740;2023-04-10T09:02:09;13.40;99.90
9403;DHT22;4741;49.834;10.740;2023-04-10T09:04:36;13.50;99.90
9403;DHT22;4741;49.834;10.740;2023-04-10T09:07:03;13.30;99.90
9403;DHT22;4741;49.834;10.740;2023-04-10T09:09:30;12.00;99.90
9403;DHT22;4741;49.834;10.740;2023-04-10T09:12:03;14.00;99.90
9403;DHT22;4741;49.834;10.740;2023-04-10T09:14:32;14.40;99.90
9403;DHT22;4741;49.834;10.740;2023-04-10T09:19:59;13.00;99.90
9403;DHT22;4741;49.834;10.740;2023-04-10T09:22:30;12.50;99.90
9403;DHT22;4741;49.834;10.740;2023-04-10T09:24:58;12.80;99.90
9403;DHT22;4741;49.834;10.740;2023-04-10T09:27:30;11.90;99.90
9403;DHT22;4741;49.834;10.740;2023-04-10T09:29:59;12.80;99.90
9403;DHT22;4741;49.834;10.740;2023-04-10T09:32:36;13.70;99.90
9403;DHT22;4741;49.834;10.740;2023-04-10T09:35:03;12.80;99.90
9403;DHT22;4741;49.834;10.740;2023-04-10T09:37:31;12.80;99.90
9403;DHT22;4741;49.834;10.740;2023-04-10T09:39:58;11.80;99.90
9403;DHT22;4741;49.834;10.740;2023-04-10T09:42:33;12.00;99.90
9403;DHT22;4741;49.834;10.740;2023-04-10T09:45:00;13.20;99.90
9403;DHT22;4741;49.834;10.740;2023-04-10T09:47:27;12.50;99.90
9403;DHT22;4741;49.834;10.740;2023-04-10T09:49:57;12.70;99.90
9403;DHT22;4741;49.834;10.740;2023-04-10T09:52:30;12.50;99.90
9403;DHT22;4741;49.834;10.740;2023-04-10T09:55:04;15.10;99.90
9403;DHT22;4741;49.834;10.740;2023-04-10T09:57:31;13.30;99.90
9403;DHT22;4741;49.834;10.740;2023-04-10T09:59:59;15.10;99.90
9403;DHT22;4741;49.834;10.740;2023-04-10T10:02:29;14.90;99.90
9403;DHT22;4741;49.834;10.740;2023-04-10T10:04:59;15.10;99.90
9403;DHT22;4741;49.834;10.740;2023-04-10T10:07:29;15.20;99.90
9403;DHT22;4741;49.834;10.740;2023-04-10T10:09:56;12.40;99.90
9403;DHT22;4741;49.834;10.740;2023-04-10T10:15:07;14.20;99.90
9403;DHT22;4741;49.834;10.740;2023-04-10T10:17:38;15.90;99.90
9403;DHT22;4741;49.834;10.740;2023-04-10T10:20:07;15.00;99.90
9403;DHT22;4741;49.834;10.740;2023-04-10T10:22:34;14.20;99.90
9403;DHT22;4741;49.834;10.740;2023-04-10T10:27:42;14.80;99.90
9403;DHT22;4741;49.834;10.740;2023-04-10T10:32:57;14.90;99.90
9403;DHT22;4741;49.834;10.740;2023-04-10T10:35:25;17.00;99.90
9403;DHT22;4741;49.834;10.740;2023-04-10T10:37:58;16.30;99.90
9403;DHT22;4741;49.834;10.740;2023-04-10T10:40:40;17.10;99.90
9403;DHT22;4741;49.834;10.740;2023-04-10T10:45:40;15.60;99.90
9403;DHT22;4741;49.834;10.740;2023-04-10T10:48:09;15.90;99.90
9403;DHT22;4741;49.834;10.740;2023-04-10T10:50:52;17.50;99.90
9403;DHT22;4741;49.834;10.740;2023-04-10T10:53:50;16.00;99.90
9403;DHT22;4741;49.834;10.740;2023-04-10T10:58:52;16.30;99.90
9403;DHT22;4741;49.834;10.740;2023-04-10T11:01:22;18.20;99.90
9403;DHT22;4741;49.834;10.740;2023-04-10T11:03:52;17.10;99.90
9403;DHT22;4741;49.834;10.740;2023-04-10T11:06:19;16.60;99.90
9403;DHT22;4741;49.834;10.740;2023-04-10T11:08:50;16.90;99.90
9403;DHT22;4741;49.834;10.740;2023-04-10T11:11:26;17.90;99.90
9403;DHT22;4741;49.834;10.740;2023-04-10T11:19:20;17.50;99.90
9403;DHT22;4741;49.834;10.740;2023-04-10T11:22:02;19.10;99.90
9403;DHT22;4741;49.834;10.740;2023-04-10T11:24:52;17.80;99.90
9403;DHT22;4741;49.834;10.740;2023-04-10T11:27:42;18.60;99.90
9403;DHT22;4741;49.834;10.740;2023-04-10T11:30:31;17.90;99.90
9403;DHT22;4741;49.834;10.740;2023-04-10T11:33:01;18.40;99.90
9403;DHT22;4741;49.834;10.740;2023-04-10T11:35:32;19.20;99.90
9403;DHT22;4741;49.834;10.740;2023-04-10T11:38:10;19.80;99.90
9403;DHT22;4741;49.834;10.740;2023-04-10T11:40:51;19.40;99.90
9403;DHT22;4741;49.834;10.740;2023-04-10T11:43:22;19.50;99.90
9403;DHT22;4741;49.834;10.740;2023-04-10T11:46:05;18.90;99.90
9403;DHT22;4741;49.834;10.740;2023-04-10T11:48:33;20.10;99.90
9403;DHT22;4741;49.834;10.740;2023-04-10T12:03:47;18.90;99.90
9403;DHT22;4741;49.834;10.740;2023-04-10T12:21:07;17.50;99.90
9403;DHT22;4741;49.834;10.740;2023-04-10T12:41:00;20.30;99.60
9403;DHT22;4741;49.834;10.740;2023-04-10T12:45:54;20.40;99.70
9403;DHT22;4741;49.834;10.740;2023-04-10T12:48:22;21.40;99.90
9403;DHT22;4741;49.834;10.740;2023-04-10T12:50:49;20.90;96.00
9403;DHT22;4741;49.834;10.740;2023-04-10T12:53:16;21.10;95.30
9403;DHT22;4741;49.834;10.740;2023-04-10T12:56:02;20.20;95.20
9403;DHT22;4741;49.834;10.740;2023-04-10T12:58:28;18.60;94.70
9403;DHT22;4741;49.834;10.740;2023-04-10T13:01:04;19.90;96.00
9403;DHT22;4741;49.834;10.740;2023-04-10T13:03:34;19.00;95.90
9403;DHT22;4741;49.834;10.740;2023-04-10T13:06:03;19.10;95.00
9403;DHT22;4741;49.834;10.740;2023-04-10T13:08:30;19.20;96.30
9403;DHT22;4741;49.834;10.740;2023-04-10T13:10:58;21.20;97.00
9403;DHT22;4741;49.834;10.740;2023-04-10T13:13:32;21.30;93.60
9403;DHT22;4741;49.834;10.740;2023-04-10T13:16:01;20.70;93.80
9403;DHT22;4741;49.834;10.740;2023-04-10T13:18:29;19.20;92.10
9403;DHT22;4741;49.834;10.740;2023-04-10T13:20:56;20.30;94.10
9403;DHT22;4741;49.834;10.740;2023-04-10T13:23:22;20.80;94.80
9403;DHT22;4741;49.834;10.740;2023-04-10T13:25:49;21.20;94.40
9403;DHT22;4741;49.834;10.740;2023-04-10T13:33:11;20.00;92.70
9403;DHT22;4741;49.834;10.740;2023-04-10T13:38:05;20.50;92.00
9403;DHT22;4741;49.834;10.740;2023-04-10T13:40:32;21.20;94.80
9403;DHT22;4741;49.834;10.740;2023-04-10T13:42:59;20.80;96.80
9403;DHT22;4741;49.834;10.740;2023-04-10T13:45:28;21.40;91.80
9403;DHT22;4741;49.834;10.740;2023-04-10T13:50:23;21.70;88.70
9403;DHT22;4741;49.834;10.740;2023-04-10T13:52:50;20.70;90.20
9403;DHT22;4741;49.834;10.740;2023-04-10T13:55:19;21.30;90.70
9403;DHT22;4741;49.834;10.740;2023-04-10T13:57:45;20.50;88.70
9403;DHT22;4741;49.834;10.740;2023-04-10T14:00:12;21.10;90.60
9403;DHT22;4741;49.834;10.740;2023-04-10T14:02:39;21.30;90.10
9403;DHT22;4741;49.834;10.740;2023-04-10T14:05:06;21.30;90.40
9403;DHT22;4741;49.834;10.740;2023-04-10T14:10:00;21.00;88.70
9403;DHT22;4741;49.834;10.740;2023-04-10T14:12:27;21.00;89.70
9403;DHT22;4741;49.834;10.740;2023-04-10T14:14:54;22.10;88.90
9403;DHT22;4741;49.834;10.740;2023-04-10T14:17:22;21.00;89.80
9403;DHT22;4741;49.834;10.740;2023-04-10T14:19:49;20.00;90.20
9403;DHT22;4741;49.834;10.740;2023-04-10T14:22:17;20.20;90.60
9403;DHT22;4741;49.834;10.740;2023-04-10T14:24:43;19.50;90.40
9403;DHT22;4741;49.834;10.740;2023-04-10T14:27:10;20.00;90.20
9403;DHT22;4741;49.834;10.740;2023-04-10T14:29:39;19.90;90.80
9403;DHT22;4741;49.834;10.740;2023-04-10T14:32:19;20.30;91.40
9403;DHT22;4741;49.834;10.740;2023-04-10T14:34:46;20.60;90.50
9403;DHT22;4741;49.834;10.740;2023-04-10T14:37:12;19.80;90.00
9403;DHT22;4741;49.834;10.740;2023-04-10T14:39:41;20.60;90.70
9403;DHT22;4741;49.834;10.740;2023-04-10T14:42:07;19.30;91.00
9403;DHT22;4741;49.834;10.740;2023-04-10T14:44:34;18.40;90.30
9403;DHT22;4741;49.834;10.740;2023-04-10T14:47:01;18.40;91.10
9403;DHT22;4741;49.834;10.740;2023-04-10T14:49:31;20.20;95.70
9403;DHT22;4741;49.834;10.740;2023-04-10T14:51:58;20.30;95.60
9403;DHT22;4741;49.834;10.740;2023-04-10T14:54:24;20.20;96.10
9403;DHT22;4741;49.834;10.740;2023-04-10T14:56:51;19.90;92.80
9403;DHT22;4741;49.834;10.740;2023-04-10T14:59:18;19.40;97.00
9403;DHT22;4741;49.834;10.740;2023-04-10T15:01:44;20.90;96.00
9403;DHT22;4741;49.834;10.740;2023-04-10T15:04:11;20.80;92.70
9403;DHT22;4741;49.834;10.740;2023-04-10T15:06:38;19.80;96.50
9403;DHT22;4741;49.834;10.740;2023-04-10T15:09:06;20.20;96.40
9403;DHT22;4741;49.834;10.740;2023-04-10T15:11:33;19.30;93.80
9403;DHT22;4741;49.834;10.740;2023-04-10T15:14:05;20.10;97.10
9403;DHT22;4741;49.834;10.740;2023-04-10T15:16:35;19.40;94.30
9403;DHT22;4741;49.834;10.740;2023-04-10T15:19:04;19.30;94.20
9403;DHT22;4741;49.834;10.740;2023-04-10T15:21:33;18.70;94.70
9403;DHT22;4741;49.834;10.740;2023-04-10T15:24:00;19.60;98.60
9403;DHT22;4741;49.834;10.740;2023-04-10T15:28:53;17.90;92.40
9403;DHT22;4741;49.834;10.740;2023-04-10T15:31:20;19.20;97.60
9403;DHT22;4741;49.834;10.740;2023-04-10T15:33:49;19.50;99.40
9403;DHT22;4741;49.834;10.740;2023-04-10T15:36:16;18.60;97.90
9403;DHT22;4741;49.834;10.740;2023-04-10T15:38:43;20.70;99.90
9403;DHT22;4741;49.834;10.740;2023-04-10T15:41:10;20.30;93.30
9403;DHT22;4741;49.834;10.740;2023-04-10T15:43:36;19.90;91.20
9403;DHT22;4741;49.834;10.740;2023-04-10T15:46:03;20.60;93.10
9403;DHT22;4741;49.834;10.740;2023-04-10T15:48:30;18.80;91.80
9403;DHT22;4741;49.834;10.740;2023-04-10T15:50:57;19.00;91.80
9403;DHT22;4741;49.834;10.740;2023-04-10T15:53:24;18.30;99.90
9403;DHT22;4741;49.834;10.740;2023-04-10T15:55:51;20.30;99.90
9403;DHT22;4741;49.834;10.740;2023-04-10T15:58:17;18.40;99.90
9403;DHT22;4741;49.834;10.740;2023-04-10T16:00:46;19.80;99.90
9403;DHT22;4741;49.834;10.740;2023-04-10T16:03:13;17.60;99.90
9403;DHT22;4741;49.834;10.740;2023-04-10T16:05:40;19.00;99.10
9403;DHT22;4741;49.834;10.740;2023-04-10T16:08:06;18.70;96.60
9403;DHT22;4741;49.834;10.740;2023-04-10T16:10:33;18.00;97.10
9403;DHT22;4741;49.834;10.740;2023-04-10T16:13:01;18.50;96.80
9403;DHT22;4741;49.834;10.740;2023-04-10T16:17:58;16.70;94.10
9403;DHT22;4741;49.834;10.740;2023-04-10T16:20:25;17.30;93.80
9403;DHT22;4741;49.834;10.740;2023-04-10T16:22:52;15.70;93.50
9403;DHT22;4741;49.834;10.740;2023-04-10T16:25:19;17.60;94.90
9403;DHT22;4741;49.834;10.740;2023-04-10T16:27:48;16.80;94.60
9403;DHT22;4741;49.834;10.740;2023-04-10T16:30:15;15.50;92.90
9403;DHT22;4741;49.834;10.740;2023-04-10T16:32:43;14.40;93.30
9403;DHT22;4741;49.834;10.740;2023-04-10T16:35:10;16.80;94.50
9403;DHT22;4741;49.834;10.740;2023-04-10T16:37:38;16.40;94.10
9403;DHT22;4741;49.834;10.740;2023-04-10T16:40:04;15.30;93.10
9403;DHT22;4741;49.834;10.740;2023-04-10T16:42:31;15.50;94.30
9403;DHT22;4741;49.834;10.740;2023-04-10T16:44:59;16.90;94.00
9403;DHT22;4741;49.834;10.740;2023-04-10T16:47:28;15.50;92.90
9403;DHT22;4741;49.834;10.740;2023-04-10T16:49:55;15.30;93.30
9403;DHT22;4741;49.834;10.740;2023-04-10T16:52:21;16.10;94.20
9403;DHT22;4741;49.834;10.740;2023-04-10T16:54:54;14.70;93.60
9403;DHT22;4741;49.834;10.740;2023-04-10T17:02:02;14.80;93.00
9403;DHT22;4741;49.834;10.740;2023-04-10T17:08:28;14.60;93.50
9403;DHT22;4741;49.834;10.740;2023-04-10T17:10:55;14.50;93.70
9403;DHT22;4741;49.834;10.740;2023-04-10T17:13:22;14.30;93.70
9403;DHT22;4741;49.834;10.740;2023-04-10T17:15:48;15.10;94.20
9403;DHT22;4741;49.834;10.740;2023-04-10T17:18:15;15.00;93.90
9403;DHT22;4741;49.834;10.740;2023-04-10T17:20:45;14.70;94.10
9403;DHT22;4741;49.834;10.740;2023-04-10T17:23:13;14.90;93.90
9403;DHT22;4741;49.834;10.740;2023-04-10T17:25:40;14.90;94.00
9403;DHT22;4741;49.834;10.740;2023-04-10T17:28:07;14.30;94.10
9403;DHT22;4741;49.834;10.740;2023-04-10T17:30:34;14.90;94.50
9403;DHT22;4741;49.834;10.740;2023-04-10T17:33:01;14.60;94.40
9403;DHT22;4741;49.834;10.740;2023-04-10T17:35:30;15.10;95.00
9403;DHT22;4741;49.834;10.740;2023-04-10T17:37:57;14.00;94.30
9403;DHT22;4741;49.834;10.740;2023-04-10T17:40:23;14.80;94.90
9403;DHT22;4741;49.834;10.740;2023-04-10T17:42:50;14.30;95.00
9403;DHT22;4741;49.834;10.740;2023-04-10T17:45:17;14.60;95.20
9403;DHT22;4741;49.834;10.740;2023-04-10T17:47:44;13.80;94.80
9403;DHT22;4741;49.834;10.740;2023-04-10T17:50:11;14.70;95.10
9403;DHT22;4741;49.834;10.740;2023-04-10T17:52:38;13.90;95.00
9403;DHT22;4741;49.834;10.740;2023-04-10T17:55:05;14.40;95.50